Time;durP1;ratioP1;P1;durP2;ratioP2;P2;SDS_P1;SDS_P2;PMS_P1;PMS_P2;Temp;Humidity;BMP_temperature;BMP_pressure;BME280_temperature;BME280_humidity;BME280_pressure;Samples;Min_cycle;Max_cycle;Signal;HPM_P1;HPM_P2
2023/05/30 00:01:27;;;;;;;12.55;3.55;;;10.60;99.90;;;;;;5036492;28;20530;-29
2023/05/30 00:03:53;;;;;;;11.73;3.80;;;10.60;99.90;;;;;;5036503;28;20042;-29
2023/05/30 00:06:19;;;;;;;18.17;3.92;;;10.60;99.90;;;;;;5036444;28;20049;-29
2023/05/30 00:08:45;;;;;;;13.38;3.38;;;10.60;99.90;;;;;;5036962;28;20045;-29
2023/05/30 00:11:14;;;;;;;13.35;3.28;;;10.50;99.90;;;;;;5018869;28;20053;-29
2023/05/30 00:13:42;;;;;;;14.88;4.18;;;10.50;99.90;;;;;;5036813;28;20112;-29
2023/05/30 00:16:09;;;;;;;9.63;3.00;;;10.50;99.90;;;;;;5036306;28;20400;-29
2023/05/30 00:18:35;;;;;;;12.50;3.10;;;10.50;99.90;;;;;;5036094;28;20048;-28
2023/05/30 00:21:05;;;;;;;13.10;3.20;;;10.50;99.90;;;;;;5036013;28;20452;-29
2023/05/30 00:23:32;;;;;;;10.48;2.40;;;10.50;99.90;;;;;;5036192;28;20057;-29
2023/05/30 00:25:59;;;;;;;15.43;3.50;;;10.50;99.90;;;;;;5036111;28;20048;-29
2023/05/30 00:28:25;;;;;;;11.65;2.70;;;10.50;99.90;;;;;;5036831;28;20045;-29
2023/05/30 00:30:52;;;;;;;13.82;3.45;;;10.40;99.90;;;;;;5034956;28;20053;-30
2023/05/30 00:33:17;;;;;;;16.50;4.05;;;10.50;99.90;;;;;;5036758;28;20042;-29
2023/05/30 00:35:43;;;;;;;11.75;3.20;;;10.50;99.90;;;;;;5034718;28;20044;-29
2023/05/30 00:38:09;;;;;;;11.38;3.47;;;10.50;99.90;;;;;;5035845;28;20067;-29
2023/05/30 00:40:35;;;;;;;13.23;2.95;;;10.50;99.90;;;;;;5035370;28;20058;-29
2023/05/30 00:43:00;;;;;;;14.23;3.03;;;10.50;99.90;;;;;;5034519;28;20134;-30
2023/05/30 00:45:26;;;;;;;11.82;2.78;;;10.50;99.90;;;;;;5036272;28;20044;-29
2023/05/30 00:47:53;;;;;;;11.15;3.38;;;10.50;99.90;;;;;;5035653;28;20046;-30
2023/05/30 00:50:20;;;;;;;8.80;2.42;;;10.40;99.90;;;;;;5034627;28;20477;-29
2023/05/30 00:52:49;;;;;;;11.68;2.75;;;10.40;99.90;;;;;;5035572;28;20088;-29
2023/05/30 00:55:18;;;;;;;12.15;2.90;;;10.40;99.90;;;;;;5035530;28;20056;-30
2023/05/30 00:57:46;;;;;;;15.40;3.05;;;10.40;99.90;;;;;;5035406;28;20144;-29
2023/05/30 01:00:14;;;;;;;9.43;2.78;;;10.50;99.90;;;;;;5035399;28;20055;-29
2023/05/30 01:02:41;;;;;;;19.80;3.10;;;10.40;99.90;;;;;;5035120;28;20548;-29
2023/05/30 01:05:07;;;;;;;12.88;3.00;;;10.40;99.90;;;;;;5035898;28;20045;-29
2023/05/30 01:07:33;;;;;;;12.32;2.70;;;10.40;99.90;;;;;;5034015;28;20140;-30
2023/05/30 01:10:00;;;;;;;13.45;3.55;;;10.40;99.90;;;;;;5036005;28;20051;-29
2023/05/30 01:12:34;;;;;;;15.65;2.95;;;10.40;99.90;;;;;;5036018;28;20092;-29
2023/05/30 01:15:09;;;;;;;13.02;3.45;;;10.40;99.90;;;;;;5036043;28;20045;-29
2023/05/30 01:17:42;;;;;;;13.52;2.65;;;10.40;99.90;;;;;;5034947;28;20053;-29
2023/05/30 01:20:18;;;;;;;8.68;3.10;;;10.40;99.90;;;;;;5033411;28;20064;-29
2023/05/30 01:22:49;;;;;;;14.57;3.33;;;10.40;99.90;;;;;;5034947;28;20052;-29
2023/05/30 01:25:26;;;;;;;10.25;2.85;;;10.40;99.90;;;;;;5034903;28;20108;-29
2023/05/30 01:28:01;;;;;;;10.15;3.10;;;10.40;99.90;;;;;;5035030;28;20123;-29
2023/05/30 01:30:30;;;;;;;13.27;3.20;;;10.40;1.00;;;;;;5034855;28;20057;-29
2023/05/30 01:32:55;;;;;;;13.60;3.55;;;10.40;99.90;;;;;;5034753;28;20426;-29
2023/05/30 01:35:24;;;;;;;13.85;4.28;;;10.40;99.90;;;;;;5034729;28;20099;-29
2023/05/30 01:37:50;;;;;;;13.10;3.15;;;10.40;1.00;;;;;;5033739;28;20041;-28
2023/05/30 01:40:26;;;;;;;13.75;3.25;;;10.40;1.00;;;;;;5034637;28;20107;-29
2023/05/30 01:43:15;;;;;;;12.73;3.05;;;10.40;1.00;;;;;;5033372;28;20052;-29
2023/05/30 01:45:56;;;;;;;11.63;3.72;;;10.40;1.00;;;;;;5034615;28;20106;-29
2023/05/30 01:48:48;;;;;;;10.05;3.00;;;10.50;1.00;;;;;;5034619;28;20056;-29
2023/05/30 01:51:19;;;;;;;10.15;2.83;;;10.50;1.00;;;;;;5034459;28;20051;-29
2023/05/30 01:53:54;;;;;;;12.18;3.97;;;10.50;99.90;;;;;;5033473;28;20057;-28
2023/05/30 01:56:21;;;;;;;13.52;3.60;;;10.50;1.00;;;;;;5034949;28;20053;-31
2023/05/30 01:58:49;;;;;;;7.93;2.92;;;10.40;1.00;;;;;;5033856;28;20041;-29
2023/05/30 02:01:17;;;;;;;14.48;3.55;;;10.40;1.00;;;;;;5016877;28;20056;-28
2023/05/30 02:03:42;;;;;;;15.93;4.18;;;10.40;1.00;;;;;;5033915;28;20600;-29
2023/05/30 02:06:08;;;;;;;9.63;2.70;;;10.40;1.00;;;;;;5034200;28;20223;-28
2023/05/30 02:08:34;;;;;;;12.45;2.97;;;10.40;1.00;;;;;;5034435;28;20068;-29
2023/05/30 02:10:59;;;;;;;10.73;3.08;;;10.40;1.00;;;;;;5033111;28;20045;-29
2023/05/30 02:13:25;;;;;;;12.43;4.32;;;10.40;1.00;;;;;;5034045;28;20044;-29
2023/05/30 02:15:51;;;;;;;12.55;3.60;;;10.40;1.00;;;;;;5034299;28;20053;-29
2023/05/30 02:18:17;;;;;;;12.95;3.50;;;10.40;1.00;;;;;;5033833;28;20443;-29
2023/05/30 02:20:43;;;;;;;19.60;5.22;;;10.40;1.00;;;;;;5032773;28;20057;-30
2023/05/30 02:23:08;;;;;;;14.25;2.97;;;10.40;1.00;;;;;;5033322;28;20045;-29
2023/05/30 02:25:34;;;;;;;27.00;3.78;;;10.40;1.00;;;;;;5033341;28;20451;-29
2023/05/30 02:28:00;;;;;;;12.27;3.95;;;10.40;1.00;;;;;;5017314;28;20053;-29
2023/05/30 02:30:25;;;;;;;14.90;3.47;;;10.40;1.00;;;;;;5033826;28;20049;-30
2023/05/30 02:32:51;;;;;;;12.82;3.30;;;10.40;1.00;;;;;;5034307;28;20045;-29
2023/05/30 02:35:17;;;;;;;12.52;3.17;;;10.40;1.00;;;;;;5034334;28;20124;-30
2023/05/30 02:37:43;;;;;;;13.15;4.00;;;10.30;1.00;;;;;;5016784;28;20099;-31
2023/05/30 02:40:11;;;;;;;18.27;3.75;;;10.30;1.00;;;;;;5032737;28;20042;-29
2023/05/30 02:42:37;;;;;;;16.35;3.83;;;10.30;1.00;;;;;;5032714;28;20049;-30
2023/05/30 02:45:04;;;;;;;13.10;3.45;;;10.30;1.00;;;;;;5033331;28;20409;-29
2023/05/30 02:47:29;;;;;;;12.05;3.80;;;10.30;1.00;;;;;;5016057;28;20045;-29
2023/05/30 02:49:55;;;;;;;12.48;3.38;;;10.30;1.00;;;;;;5033585;28;20045;-29
2023/05/30 02:52:21;;;;;;;15.02;3.55;;;10.30;1.00;;;;;;5034379;28;20049;-29
2023/05/30 02:54:48;;;;;;;12.38;3.10;;;10.30;1.00;;;;;;5033006;28;20488;-29
2023/05/30 02:57:15;;;;;;;15.93;3.38;;;10.30;1.00;;;;;;5033525;28;20045;-29
2023/05/30 02:59:41;;;;;;;15.88;4.35;;;10.30;1.00;;;;;;5034006;28;20142;-30
2023/05/30 03:02:07;;;;;;;14.32;3.08;;;10.30;1.00;;;;;;5016122;28;20092;-30
2023/05/30 03:04:32;;;;;;;14.88;3.45;;;10.40;1.00;;;;;;5033281;28;20099;-29
2023/05/30 03:06:59;;;;;;;18.08;3.97;;;10.40;1.00;;;;;;5033403;28;20085;-29
2023/05/30 03:09:24;;;;;;;17.17;3.60;;;10.40;1.00;;;;;;5033941;28;20041;-28
2023/05/30 03:11:50;;;;;;;15.90;3.40;;;10.40;1.00;;;;;;5032441;28;20064;-29
2023/05/30 03:14:16;;;;;;;19.13;3.60;;;10.40;1.00;;;;;;4999971;28;20138;-29
2023/05/30 03:16:42;;;;;;;12.55;4.13;;;10.40;1.00;;;;;;5033249;28;20084;-29
2023/05/30 03:19:08;;;;;;;11.23;3.53;;;10.40;1.00;;;;;;5033014;28;20037;-27
2023/05/30 03:21:37;;;;;;;16.35;3.53;;;10.40;1.00;;;;;;5033891;28;20544;-29
2023/05/30 03:24:04;;;;;;;18.88;3.75;;;10.40;1.00;;;;;;5033281;28;20054;-29
2023/05/30 03:26:29;;;;;;;27.73;4.65;;;10.40;1.00;;;;;;5033828;28;20056;-29
2023/05/30 03:28:55;;;;;;;17.15;3.90;;;10.40;1.00;;;;;;5032903;28;20042;-29
2023/05/30 03:31:21;;;;;;;16.52;4.90;;;10.50;1.00;;;;;;5033735;28;20056;-29
2023/05/30 03:33:47;;;;;;;17.40;5.45;;;10.50;1.00;;;;;;5033968;28;20053;-29
2023/05/30 03:36:12;;;;;;;15.02;4.00;;;10.50;1.00;;;;;;5032520;28;20077;-29
2023/05/30 03:38:38;;;;;;;12.98;3.13;;;10.50;1.00;;;;;;5032814;28;20038;-29
2023/05/30 03:41:05;;;;;;;10.93;3.75;;;10.50;1.00;;;;;;5032728;28;20045;-29
2023/05/30 03:43:31;;;;;;;11.93;4.32;;;10.50;1.00;;;;;;5033098;28;20128;-30
2023/05/30 03:45:56;;;;;;;12.60;3.80;;;10.50;1.00;;;;;;5032171;28;20129;-29
2023/05/30 03:48:22;;;;;;;13.88;4.00;;;10.50;1.00;;;;;;5033580;28;20092;-30
2023/05/30 03:50:48;;;;;;;16.02;3.92;;;10.50;1.00;;;;;;5031543;28;20052;-30
2023/05/30 03:53:14;;;;;;;21.13;4.45;;;10.50;1.00;;;;;;5031866;28;20132;-29
2023/05/30 03:55:40;;;;;;;14.90;4.43;;;10.60;1.00;;;;;;5015378;28;20049;-29
2023/05/30 03:58:05;;;;;;;17.85;4.20;;;10.60;1.00;;;;;;5033158;28;20068;-29
2023/05/30 04:00:31;;;;;;;16.58;4.40;;;10.60;1.00;;;;;;5032964;28;20509;-29
2023/05/30 04:03:00;;;;;;;17.40;4.00;;;10.60;1.00;;;;;;5032931;28;20083;-28
2023/05/30 04:05:26;;;;;;;11.25;4.03;;;10.60;1.00;;;;;;5033154;28;20509;-29
2023/05/30 04:07:52;;;;;;;18.25;3.85;;;10.70;1.00;;;;;;5035155;28;20132;-29
2023/05/30 04:10:17;;;;;;;13.65;3.40;;;10.70;1.00;;;;;;5035255;28;20140;-29
2023/05/30 04:12:43;;;;;;;17.48;4.55;;;10.70;1.00;;;;;;5036307;28;20052;-29
2023/05/30 04:15:10;;;;;;;17.88;4.43;;;10.70;1.00;;;;;;5036288;28;20049;-29
2023/05/30 04:17:36;;;;;;;15.82;3.20;;;10.80;1.00;;;;;;5036299;28;20076;-29
2023/05/30 04:20:04;;;;;;;19.08;3.72;;;10.80;44.30;;;;;;5036434;28;20060;-29
2023/05/30 04:22:30;;;;;;;19.38;3.88;;;10.80;47.90;;;;;;5035895;28;20532;-29
2023/05/30 04:24:56;;;;;;;10.85;3.65;;;10.90;2.50;;;;;;5036633;28;20084;-30
2023/05/30 04:27:22;;;;;;;14.98;4.35;;;10.90;45.60;;;;;;4986172;28;20048;-30
2023/05/30 04:29:48;;;;;;;17.15;3.70;;;10.90;33.90;;;;;;5035087;28;20050;-30
2023/05/30 04:32:14;;;;;;;13.77;3.10;;;11.00;40.90;;;;;;5035994;28;20119;-29
2023/05/30 04:34:40;;;;;;;14.23;3.67;;;11.00;32.20;;;;;;5035988;28;20050;-29
2023/05/30 04:37:07;;;;;;;11.95;3.75;;;11.10;19.30;;;;;;5034927;28;20111;-29
2023/05/30 04:39:33;;;;;;;17.13;3.65;;;11.10;4.00;;;;;;5036540;28;20470;-29
2023/05/30 04:41:59;;;;;;;12.40;3.70;;;11.20;1.00;;;;;;5018327;28;20088;-29
2023/05/30 04:44:25;;;;;;;12.98;3.72;;;11.20;4.90;;;;;;5018531;28;20432;-29
2023/05/30 04:46:51;;;;;;;10.77;3.08;;;11.20;18.70;;;;;;5036028;28;20060;-29
2023/05/30 04:49:17;;;;;;;13.07;3.20;;;11.30;94.50;;;;;;5035457;28;20045;-30
2023/05/30 04:51:46;;;;;;;13.43;3.67;;;11.30;99.90;;;;;;5035590;28;20041;-29
2023/05/30 04:54:15;;;;;;;13.73;4.78;;;11.30;73.40;;;;;;5036362;28;20115;-29
2023/05/30 04:56:41;;;;;;;15.68;4.18;;;11.40;87.60;;;;;;5034319;28;20049;-29
2023/05/30 04:59:07;;;;;;;15.50;3.58;;;11.40;67.10;;;;;;5035371;28;20049;-29
2023/05/30 05:01:35;;;;;;;17.50;3.47;;;11.40;99.90;;;;;;5035423;28;20049;-31
2023/05/30 05:04:02;;;;;;;14.88;3.70;;;11.40;99.90;;;;;;5034435;28;20053;-29
2023/05/30 05:06:27;;;;;;;10.18;3.65;;;11.40;99.90;;;;;;5035306;28;20191;-29
2023/05/30 05:08:53;;;;;;;19.00;4.18;;;11.50;99.90;;;;;;5035312;28;20128;-29
2023/05/30 05:11:21;;;;;;;13.02;3.97;;;11.50;99.90;;;;;;5035254;28;20132;-30
2023/05/30 05:13:47;;;;;;;13.68;4.47;;;11.50;99.90;;;;;;5034935;28;20492;-29
2023/05/30 05:16:12;;;;;;;18.67;3.55;;;11.50;99.90;;;;;;5035533;28;20131;-29
2023/05/30 05:18:38;;;;;;;8.35;2.63;;;11.50;99.90;;;;;;5034955;28;20136;-29
2023/05/30 05:21:06;;;;;;;10.05;3.65;;;11.50;99.90;;;;;;5034873;28;20390;-30
2023/05/30 05:23:32;;;;;;;12.95;3.30;;;11.60;99.90;;;;;;5034995;28;20493;-29
2023/05/30 05:26:00;;;;;;;10.40;2.35;;;11.50;99.90;;;;;;5034994;28;20053;-30
2023/05/30 05:28:25;;;;;;;8.98;2.60;;;11.50;99.90;;;;;;5034888;28;20122;-30
2023/05/30 05:30:51;;;;;;;8.93;2.70;;;11.60;99.90;;;;;;5033352;28;20053;-29
2023/05/30 05:33:17;;;;;;;11.40;3.00;;;11.50;99.90;;;;;;5035605;28;20087;-29
2023/05/30 05:35:46;;;;;;;21.45;3.58;;;11.50;99.90;;;;;;5017410;28;20151;-29
2023/05/30 05:38:12;;;;;;;10.13;2.67;;;11.60;99.90;;;;;;5034628;28;20124;-30
2023/05/30 05:40:38;;;;;;;7.22;2.35;;;11.50;99.90;;;;;;5034697;28;20049;-29
2023/05/30 05:43:03;;;;;;;5.72;2.20;;;11.60;99.90;;;;;;5034955;28;20499;-30
2023/05/30 05:45:29;;;;;;;10.80;2.63;;;11.60;99.90;;;;;;5033337;28;20045;-29
2023/05/30 05:47:55;;;;;;;10.05;2.35;;;11.60;99.90;;;;;;5034521;28;20046;-29
2023/05/30 05:50:21;;;;;;;9.30;2.50;;;11.60;99.90;;;;;;5034173;28;20049;-29
2023/05/30 05:52:46;;;;;;;8.50;2.22;;;11.70;99.90;;;;;;5017410;28;20092;-29
2023/05/30 05:55:12;;;;;;;10.23;2.45;;;11.70;99.90;;;;;;5034085;28;20176;-29
2023/05/30 05:57:38;;;;;;;9.80;2.58;;;11.70;99.90;;;;;;5034922;28;20045;-29
2023/05/30 06:00:05;;;;;;;10.27;2.45;;;11.70;99.90;;;;;;5034230;28;20135;-29
2023/05/30 06:02:32;;;;;;;10.10;2.90;;;11.70;99.90;;;;;;5034339;28;20068;-29
2023/05/30 06:04:57;;;;;;;8.15;2.55;;;11.70;99.90;;;;;;5034769;28;20080;-29
2023/05/30 06:07:23;;;;;;;7.20;2.58;;;11.70;99.90;;;;;;5034205;28;20120;-29
2023/05/30 06:09:49;;;;;;;11.68;2.65;;;11.80;99.90;;;;;;5033479;28;20057;-29
2023/05/30 06:12:15;;;;;;;9.02;2.85;;;11.80;99.90;;;;;;5034098;28;20060;-29
2023/05/30 06:14:41;;;;;;;11.07;3.05;;;11.80;99.90;;;;;;5034094;28;20049;-29
2023/05/30 06:17:08;;;;;;;7.75;2.25;;;11.90;99.90;;;;;;5034445;28;20103;-29
2023/05/30 06:19:34;;;;;;;8.50;2.25;;;11.90;99.90;;;;;;5034308;28;20065;-29
2023/05/30 06:21:59;;;;;;;8.20;2.00;;;11.80;99.90;;;;;;5033699;28;20124;-29
2023/05/30 06:24:25;;;;;;;10.02;2.60;;;11.80;99.90;;;;;;5033949;28;20561;-30
2023/05/30 06:26:51;;;;;;;10.90;2.55;;;11.80;99.90;;;;;;5034732;28;20385;-30
2023/05/30 06:29:16;;;;;;;11.38;2.15;;;11.80;99.90;;;;;;5015616;28;20485;-29
2023/05/30 06:31:42;;;;;;;7.65;1.95;;;11.70;99.90;;;;;;5033859;28;20056;-29
2023/05/30 06:34:08;;;;;;;8.63;2.40;;;11.80;99.90;;;;;;5033849;28;20053;-29
2023/05/30 06:36:33;;;;;;;7.40;1.88;;;11.70;99.90;;;;;;5033293;28;20050;-29
2023/05/30 06:38:59;;;;;;;8.15;2.13;;;11.70;99.90;;;;;;5033646;28;20135;-29
2023/05/30 06:41:26;;;;;;;10.05;2.55;;;11.70;1.00;;;;;;5033998;28;20049;-29
2023/05/30 06:43:51;;;;;;;5.55;2.00;;;11.80;1.00;;;;;;5032413;28;20531;-29
2023/05/30 06:46:17;;;;;;;5.75;1.55;;;11.80;99.90;;;;;;5033613;28;20041;-29
2023/05/30 06:48:43;;;;;;;6.57;1.88;;;11.80;1.00;;;;;;5033903;28;20116;-29
2023/05/30 06:51:11;;;;;;;7.55;2.05;;;11.90;1.00;;;;;;5033598;28;20099;-29
2023/05/30 06:53:37;;;;;;;4.82;1.83;;;11.90;1.00;;;;;;5033556;28;20137;-29
2023/05/30 06:56:02;;;;;;;7.53;1.60;;;11.90;1.00;;;;;;5033555;28;20080;-29
2023/05/30 06:58:28;;;;;;;7.35;1.80;;;12.00;1.00;;;;;;5032332;28;20045;-30
2023/05/30 07:00:54;;;;;;;8.65;1.90;;;12.10;1.00;;;;;;5033514;28;20404;-29
2023/05/30 07:03:20;;;;;;;5.95;1.60;;;12.10;1.00;;;;;;5032504;28;20496;-29
2023/05/30 07:05:45;;;;;;;6.57;1.55;;;12.20;1.00;;;;;;5033735;28;20440;-29
2023/05/30 07:08:11;;;;;;;6.35;1.70;;;12.20;1.00;;;;;;5033430;28;20045;-29
2023/05/30 07:10:37;;;;;;;6.93;1.88;;;12.10;1.00;;;;;;5033263;28;20061;-29
2023/05/30 07:13:02;;;;;;;6.20;2.00;;;12.10;1.00;;;;;;5033949;28;20442;-28
2023/05/30 07:15:31;;;;;;;7.05;1.55;;;11.90;1.00;;;;;;5032220;28;20049;-28
2023/05/30 07:17:57;;;;;;;5.63;2.05;;;11.80;25.50;;;;;;5033178;28;20050;-29
2023/05/30 07:20:23;;;;;;;5.00;1.88;;;11.80;10.80;;;;;;5033307;28;20144;-28
2023/05/30 07:22:52;;;;;;;9.77;2.38;;;11.70;99.30;;;;;;5033272;28;20107;-28
2023/05/30 07:25:18;;;;;;;8.27;1.90;;;11.80;99.90;;;;;;5033518;28;20489;-29
2023/05/30 07:27:44;;;;;;;4.30;1.80;;;11.80;99.90;;;;;;5032328;28;20052;-28
2023/05/30 07:30:10;;;;;;;3.58;1.45;;;11.90;99.90;;;;;;5016720;28;20060;-28
2023/05/30 07:32:36;;;;;;;6.15;1.60;;;12.10;99.90;;;;;;5033211;28;20045;-29
2023/05/30 07:35:02;;;;;;;9.05;1.70;;;12.30;99.90;;;;;;5032855;28;20143;-28
2023/05/30 07:37:27;;;;;;;3.70;1.40;;;12.40;99.90;;;;;;5033191;28;20044;-29
2023/05/30 07:39:53;;;;;;;4.05;1.13;;;12.50;99.90;;;;;;5034109;28;20159;-29
2023/05/30 07:42:19;;;;;;;2.80;1.05;;;12.50;98.00;;;;;;5037721;28;20128;-28
2023/05/30 07:44:44;;;;;;;4.28;1.00;;;12.40;99.90;;;;;;5036884;28;20045;-28
2023/05/30 07:47:10;;;;;;;2.15;0.50;;;12.40;99.90;;;;;;5035369;28;20049;-28
2023/05/30 07:49:36;;;;;;;2.97;0.80;;;12.30;99.90;;;;;;5019621;28;20045;-28
2023/05/30 07:52:01;;;;;;;3.22;0.65;;;12.00;99.90;;;;;;5036729;28;20057;-29
2023/05/30 07:54:27;;;;;;;4.03;0.57;;;11.90;99.90;;;;;;5035530;28;20072;-28
2023/05/30 07:56:54;;;;;;;4.63;0.40;;;11.80;99.90;;;;;;5036507;28;20053;-28
2023/05/30 07:59:19;;;;;;;3.63;0.98;;;11.80;99.90;;;;;;5036537;28;20048;-28
2023/05/30 08:01:46;;;;;;;2.05;0.70;;;12.00;99.90;;;;;;5036620;28;20046;-31
2023/05/30 08:04:12;;;;;;;4.07;0.70;;;12.20;99.90;;;;;;5035551;28;20500;-28
2023/05/30 08:06:38;;;;;;;2.35;0.40;;;12.40;99.90;;;;;;5036576;28;20092;-29
2023/05/30 08:09:04;;;;;;;4.22;0.73;;;12.80;99.90;;;;;;5036960;28;20042;-29
2023/05/30 08:11:30;;;;;;;3.22;0.40;;;13.10;99.90;;;;;;5035473;28;20049;-28
2023/05/30 08:13:56;;;;;;;1.13;0.30;;;13.20;99.90;;;;;;5036328;28;20496;-29
2023/05/30 08:16:23;;;;;;;3.10;0.60;;;13.10;54.30;;;;;;5036337;28;20088;-29
2023/05/30 08:18:49;;;;;;;2.25;0.40;;;13.10;65.40;;;;;;5034782;28;20050;-29
2023/05/30 08:21:15;;;;;;;1.75;0.30;;;13.10;1.00;;;;;;5035099;28;20119;-29
2023/05/30 08:23:41;;;;;;;1.65;0.30;;;13.20;1.00;;;;;;5036710;28;20053;-28
2023/05/30 08:26:08;;;;;;;3.53;0.45;;;13.20;1.00;;;;;;5036145;28;20045;-29
2023/05/30 08:28:34;;;;;;;2.10;0.30;;;13.60;1.00;;;;;;5036612;28;20042;-29
2023/05/30 08:31:00;;;;;;;0.30;0.13;;;13.90;1.00;;;;;;5036025;28;20128;-29
2023/05/30 08:33:26;;;;;;;1.48;0.45;;;14.10;99.90;;;;;;5036817;28;20073;-29
2023/05/30 08:35:52;;;;;;;2.42;0.30;;;14.10;99.90;;;;;;5035949;28;20468;-29
2023/05/30 08:38:18;;;;;;;2.25;0.40;;;14.20;99.90;;;;;;5035526;28;20099;-29
2023/05/30 08:40:45;;;;;;;1.23;0.38;;;14.20;1.50;;;;;;5036477;28;20136;-29
2023/05/30 08:43:11;;;;;;;0.75;0.20;;;14.20;1.00;;;;;;5035770;28;20095;-29
2023/05/30 08:45:38;;;;;;;1.27;0.30;;;14.20;1.00;;;;;;5035787;28;20085;-29
2023/05/30 08:48:05;;;;;;;1.00;0.20;;;14.20;1.00;;;;;;5035743;28;20128;-29
2023/05/30 08:50:33;;;;;;;1.65;0.40;;;14.30;1.00;;;;;;5035670;28;20085;-29
2023/05/30 08:53:07;;;;;;;1.48;0.30;;;14.20;1.00;;;;;;5034804;28;20107;-29
2023/05/30 08:55:43;;;;;;;2.45;0.52;;;14.30;1.00;;;;;;5036435;28;20049;-29
2023/05/30 08:58:21;;;;;;;2.20;0.20;;;14.20;1.00;;;;;;5035362;28;20062;-29
2023/05/30 09:00:49;;;;;;;0.57;0.05;;;14.30;99.90;;;;;;5035489;28;20052;-29
2023/05/30 09:03:16;;;;;;;0.65;0.17;;;15.30;99.90;;;;;;5035995;28;20048;-29
2023/05/30 09:05:44;;;;;;;2.40;0.30;;;16.30;1.00;;;;;;5035031;28;20152;-29
2023/05/30 09:08:12;;;;;;;0.75;0.10;;;17.20;99.90;;;;;;5035392;28;20041;-29
2023/05/30 09:10:41;;;;;;;1.63;0.22;;;17.80;23.70;;;;;;5035300;28;20053;-29
2023/05/30 09:13:07;;;;;;;0.98;0.20;;;18.20;1.00;;;;;;5035286;28;20425;-28
2023/05/30 09:15:32;;;;;;;0.43;0.20;;;18.60;1.00;;;;;;5035181;28;20042;-28
2023/05/30 09:17:58;;;;;;;2.28;0.32;;;18.40;1.00;;;;;;5033870;28;20129;-28
2023/05/30 09:20:26;;;;;;;0.40;0.20;;;19.20;99.90;;;;;;5034767;28;20057;-28
2023/05/30 09:22:52;;;;;;;0.40;0.20;;;18.90;99.90;;;;;;5033943;28;20053;-29
2023/05/30 09:25:18;;;;;;;1.50;0.25;;;17.60;99.90;;;;;;5034084;28;20538;-29
2023/05/30 09:27:48;;;;;;;5.25;0.38;;;17.10;81.40;;;;;;5035496;28;20050;-28
2023/05/30 09:30:14;;;;;;;1.05;0.40;;;16.90;99.90;;;;;;5034979;28;20215;-28
2023/05/30 09:32:40;;;;;;;3.22;0.40;;;15.90;99.90;;;;;;5034846;28;20060;-28
2023/05/30 09:35:09;;;;;;;1.35;0.40;;;15.70;99.90;;;;;;5034898;28;20041;-28
2023/05/30 09:37:40;;;;;;;1.45;0.40;;;15.50;99.90;;;;;;5034424;28;20060;-28
2023/05/30 09:40:09;;;;;;;0.88;0.30;;;15.30;1.00;;;;;;5034966;28;20068;-28
2023/05/30 09:42:53;;;;;;;1.75;0.30;;;15.10;1.00;;;;;;5034656;28;20531;-29
2023/05/30 09:45:24;;;;;;;2.05;0.50;;;15.10;1.00;;;;;;5035511;28;20088;-30
2023/05/30 09:47:51;;;;;;;3.47;0.95;;;15.00;1.00;;;;;;5034875;28;20056;-29
2023/05/30 09:50:22;;;;;;;2.53;0.43;;;14.90;1.00;;;;;;5034539;28;20049;-28
2023/05/30 09:52:51;;;;;;;1.85;0.25;;;15.00;1.00;;;;;;5035395;28;20049;-29
2023/05/30 09:55:18;;;;;;;2.25;0.40;;;15.00;1.00;;;;;;5033350;28;20053;-28
2023/05/30 09:57:51;;;;;;;1.83;0.30;;;15.10;1.00;;;;;;5034482;28;20049;-28
2023/05/30 10:00:23;;;;;;;1.67;0.57;;;15.30;1.00;;;;;;5017320;28;20055;-29
2023/05/30 10:02:54;;;;;;;3.47;0.60;;;15.40;99.90;;;;;;5034858;28;20057;-28
2023/05/30 10:05:22;;;;;;;0.82;0.32;;;15.50;1.00;;;;;;5035101;28;20046;-29
2023/05/30 10:07:50;;;;;;;2.90;0.40;;;15.50;1.00;;;;;;5034254;28;20051;-28
2023/05/30 10:10:17;;;;;;;2.35;0.38;;;15.40;1.00;;;;;;5034184;28;20049;-28
2023/05/30 10:12:45;;;;;;;1.40;0.47;;;15.40;1.00;;;;;;5016666;28;20132;-28
2023/05/30 10:15:11;;;;;;;1.45;0.40;;;15.30;1.00;;;;;;5033153;28;20068;-29
2023/05/30 10:18:08;;;;;;;3.45;0.40;;;15.30;1.00;;;;;;5033303;28;20477;-29
2023/05/30 10:20:37;;;;;;;1.25;0.77;;;15.20;99.90;;;;;;5033843;28;20549;-28
2023/05/30 10:23:06;;;;;;;1.00;0.30;;;15.10;1.00;;;;;;5034559;28;20111;-28
2023/05/30 10:25:37;;;;;;;1.08;0.50;;;15.80;1.00;;;;;;5033974;28;20061;-28
2023/05/30 10:28:05;;;;;;;0.98;0.30;;;17.30;99.90;;;;;;5034178;28;20409;-29
2023/05/30 10:30:33;;;;;;;1.10;0.57;;;17.70;99.90;;;;;;5034440;28;20110;-29
2023/05/30 10:32:59;;;;;;;0.63;0.40;;;17.70;1.00;;;;;;5033857;28;20507;-29
2023/05/30 10:35:25;;;;;;;1.20;0.20;;;17.30;1.00;;;;;;5033800;28;20128;-28
2023/05/30 10:37:52;;;;;;;0.95;0.30;;;17.20;1.00;;;;;;5033658;28;20473;-28
2023/05/30 10:40:31;;;;;;;0.73;0.30;;;17.50;1.00;;;;;;5033743;28;20508;-28
2023/05/30 10:43:13;;;;;;;16.17;0.80;;;17.60;99.90;;;;;;5033746;28;20053;-28
2023/05/30 10:45:58;;;;;;;0.20;0.10;;;17.10;99.90;;;;;;5034003;28;20623;-28
2023/05/30 10:48:32;;;;;;;2.78;0.40;;;16.90;99.90;;;;;;5034500;28;20056;-28
2023/05/30 10:50:59;;;;;;;1.42;0.28;;;16.10;99.90;;;;;;5033670;28;20071;-28
2023/05/30 10:53:25;;;;;;;0.60;0.25;;;15.60;1.00;;;;;;5033624;28;20135;-29
2023/05/30 10:55:51;;;;;;;0.95;0.55;;;15.50;99.90;;;;;;4999939;28;20092;-28
2023/05/30 10:58:40;;;;;;;1.95;0.55;;;15.20;99.90;;;;;;5016383;28;20041;-28
2023/05/30 11:01:36;;;;;;;0.30;0.30;;;14.70;99.90;;;;;;5033608;28;20056;-28
2023/05/30 11:04:06;;;;;;;0.95;0.43;;;14.60;99.90;;;;;;5029697;28;20512;-28
2023/05/30 11:06:37;;;;;;;1.60;0.52;;;14.50;99.90;;;;;;5032390;28;20053;-29
2023/05/30 11:09:11;;;;;;;1.33;0.40;;;14.60;99.90;;;;;;5033749;28;20049;-28
2023/05/30 11:11:42;;;;;;;1.40;0.52;;;14.60;99.90;;;;;;5032197;28;20448;-30
2023/05/30 11:14:10;;;;;;;1.50;0.90;;;14.50;99.90;;;;;;5032421;28;20049;-28
2023/05/30 11:17:09;;;;;;;1.35;0.63;;;14.40;99.90;;;;;;5037576;28;20056;-28
2023/05/30 11:19:47;;;;;;;0.93;0.40;;;14.50;99.90;;;;;;5037273;28;20053;-28
2023/05/30 11:22:13;;;;;;;0.85;0.38;;;14.80;99.90;;;;;;5037999;28;20499;-29
2023/05/30 11:24:40;;;;;;;1.02;0.30;;;15.20;99.90;;;;;;5037289;28;20049;-29
2023/05/30 11:27:07;;;;;;;0.43;0.20;;;15.50;99.90;;;;;;5035998;28;20382;-29
2023/05/30 11:29:39;;;;;;;1.38;0.30;;;15.60;1.00;;;;;;5037714;28;20046;-28
2023/05/30 11:32:06;;;;;;;0.70;0.30;;;15.50;99.90;;;;;;5037462;28;20053;-28
2023/05/30 11:34:33;;;;;;;1.92;0.40;;;15.50;99.90;;;;;;5037358;28;20057;-28
2023/05/30 11:36:59;;;;;;;2.05;0.55;;;15.40;99.90;;;;;;5037017;28;20496;-28
2023/05/30 11:39:25;;;;;;;1.40;0.30;;;15.50;99.90;;;;;;5036624;28;20041;-28
2023/05/30 11:41:50;;;;;;;1.38;0.50;;;15.70;99.90;;;;;;5037061;28;20045;-29
2023/05/30 11:44:18;;;;;;;2.33;0.70;;;15.80;99.90;;;;;;5036946;28;20491;-28
2023/05/30 11:46:44;;;;;;;1.27;0.35;;;16.10;99.90;;;;;;5036743;28;20050;-28
2023/05/30 11:49:09;;;;;;;1.08;0.57;;;16.20;99.90;;;;;;5036863;28;20041;-29
2023/05/30 11:51:38;;;;;;;2.45;0.50;;;16.50;99.90;;;;;;5036102;28;20046;-29
2023/05/30 11:54:05;;;;;;;1.73;0.55;;;16.60;1.00;;;;;;5036179;28;20046;-29
2023/05/30 11:56:31;;;;;;;0.90;0.50;;;16.80;1.00;;;;;;5037527;28;20049;-28
2023/05/30 11:58:58;;;;;;;1.75;1.00;;;17.20;1.00;;;;;;5036934;28;20480;-28
2023/05/30 12:01:24;;;;;;;1.58;0.50;;;17.40;99.90;;;;;;5036615;28;20042;-28
2023/05/30 12:03:50;;;;;;;1.67;0.50;;;17.60;32.50;;;;;;5036591;28;20121;-29
2023/05/30 12:06:16;;;;;;;0.50;0.40;;;17.80;1.00;;;;;;5036549;28;20045;-30
2023/05/30 12:08:43;;;;;;;2.85;0.50;;;18.10;1.00;;;;;;5036505;28;20133;-28
2023/05/30 12:11:12;;;;;;;1.42;0.50;;;18.40;99.90;;;;;;5036984;28;20056;-29
2023/05/30 12:13:39;;;;;;;1.25;0.50;;;18.80;99.90;;;;;;5036952;28;20045;-29
2023/05/30 12:16:05;;;;;;;0.40;0.30;;;19.00;76.50;;;;;;5035354;28;20049;-28
2023/05/30 12:18:32;;;;;;;0.80;0.50;;;18.90;1.00;;;;;;5034885;28;20437;-28
2023/05/30 12:21:02;;;;;;;1.55;0.50;;;18.60;1.00;;;;;;5036181;28;20061;-29
2023/05/30 12:23:29;;;;;;;1.08;0.30;;;18.20;1.00;;;;;;5036208;28;20096;-28
2023/05/30 12:25:55;;;;;;;0.80;0.47;;;17.80;1.00;;;;;;5035037;28;20579;-28
2023/05/30 12:28:23;;;;;;;0.95;0.30;;;17.70;99.90;;;;;;5035643;28;20496;-28
2023/05/30 12:30:53;;;;;;;1.02;0.30;;;17.60;99.90;;;;;;5036360;28;20049;-29
2023/05/30 12:33:21;;;;;;;1.45;0.40;;;17.60;99.90;;;;;;5036832;28;20052;-28
2023/05/30 12:35:52;;;;;;;0.88;0.40;;;17.60;99.90;;;;;;5036547;28;20439;-30
2023/05/30 12:38:21;;;;;;;5.65;0.50;;;17.50;99.90;;;;;;5035940;28;20445;-28
2023/05/30 12:40:50;;;;;;;0.70;0.40;;;17.40;1.00;;;;;;5035008;28;20404;-29
2023/05/30 12:43:24;;;;;;;0.80;0.50;;;17.20;1.00;;;;;;5034317;28;20093;-28
2023/05/30 12:45:50;;;;;;;0.75;0.40;;;17.20;99.90;;;;;;5035871;28;20051;-28
2023/05/30 12:48:16;;;;;;;1.42;0.40;;;17.10;99.90;;;;;;5035711;28;20037;-28